Time;durP1;ratioP1;P1;durP2;ratioP2;P2;SDS_P1;SDS_P2;PMS_P1;PMS_P2;Temp;Humidity;BMP_temperature;BMP_pressure;BME280_temperature;BME280_humidity;BME280_pressure;Samples;Min_cycle;Max_cycle;Signal;HPM_P1;HPM_P2
2022/09/02 00:00:50;;;;;;;6.97;3.33;;;;;;;23.53;47.60;100692.78;5033683;28;20033;-56
2022/09/02 00:03:17;;;;;;;6.25;3.00;;;;;;;23.54;48.02;100688.94;5033318;28;20030;-56
2022/09/02 00:05:43;;;;;;;8.43;3.55;;;;;;;23.21;47.99;100688.88;5032843;28;20061;-56
2022/09/02 00:08:10;;;;;;;8.27;3.65;;;;;;;23.17;49.07;100687.84;5032921;28;20439;-56
2022/09/02 00:10:39;;;;;;;9.52;3.20;;;;;;;23.37;48.69;100678.53;5033109;28;20109;-56
2022/09/02 00:13:07;;;;;;;11.95;3.33;;;;;;;23.10;49.00;100692.84;5033212;28;20037;-56
2022/09/02 00:15:34;;;;;;;7.50;3.45;;;;;;;23.01;48.80;100689.94;5032762;28;20061;-56
2022/09/02 00:18:01;;;;;;;9.77;3.85;;;;;;;23.29;48.49;100693.66;5039878;28;20024;-55
2022/09/02 00:20:29;;;;;;;11.52;4.10;;;;;;;22.97;49.28;100685.38;5042330;28;20425;-56
2022/09/02 00:22:56;;;;;;;12.35;3.65;;;;;;;22.75;49.71;100697.59;5032647;28;20026;-56
2022/09/02 00:25:23;;;;;;;9.88;3.55;;;;;;;23.04;49.74;100692.09;5032588;28;20029;-56
2022/09/02 00:27:49;;;;;;;8.57;3.72;;;;;;;22.76;50.50;100701.94;5032750;28;20029;-55
2022/09/02 00:30:16;;;;;;;8.10;3.53;;;;;;;22.82;50.57;100689.88;5040228;28;20029;-55
2022/09/02 00:32:42;;;;;;;9.25;3.58;;;;;;;22.86;49.79;100693.63;5032691;28;20199;-56
2022/09/02 00:35:09;;;;;;;8.32;3.63;;;;;;;22.35;51.35;100688.75;5042530;28;20475;-56
2022/09/02 00:37:37;;;;;;;9.85;3.38;;;;;;;21.78;53.16;100693.06;5032370;28;20028;-57
2022/09/02 00:40:05;;;;;;;11.90;4.20;;;;;;;21.79;53.52;100693.88;5044037;28;20039;-56
2022/09/02 00:42:33;;;;;;;9.60;4.07;;;;;;;21.71;53.76;100694.47;5047089;28;20029;-56
2022/09/02 00:45:01;;;;;;;8.90;3.40;;;;;;;21.68;53.32;100697.75;5033085;28;20112;-56
2022/09/02 00:47:29;;;;;;;10.43;3.95;;;;;;;21.55;54.10;100691.88;5050813;28;20191;-56
2022/09/02 00:49:57;;;;;;;10.60;3.53;;;;;;;21.50;54.94;100693.81;5051890;28;20041;-56
2022/09/02 00:52:33;;;;;;;10.05;3.28;;;;;;;21.44;54.37;100690.31;5048569;28;20029;-56
2022/09/02 00:55:09;;;;;;;9.60;3.72;;;;;;;20.96;56.61;100689.16;5036974;28;20071;-57
2022/09/02 00:57:43;;;;;;;14.75;4.15;;;;;;;20.98;56.50;100681.53;5031781;28;20036;-50
2022/09/02 01:00:17;;;;;;;8.68;3.67;;;;;;;21.18;55.53;100694.22;5046360;28;20048;-53
2022/09/02 01:02:49;;;;;;;10.13;3.70;;;;;;;21.15;55.56;100689.34;5044499;28;20041;-50
2022/09/02 01:05:18;;;;;;;12.13;4.10;;;;;;;21.04;56.03;100688.56;5042624;28;20167;-53
2022/09/02 01:07:45;;;;;;;11.15;3.65;;;;;;;20.86;56.00;100691.91;5044578;28;20044;-49
2022/09/02 01:10:16;;;;;;;11.48;3.90;;;;;;;20.85;56.49;100690.28;5033146;28;20124;-50
2022/09/02 01:12:42;;;;;;;25.17;4.63;;;;;;;20.43;57.86;100683.31;5050753;28;20487;-49
2022/09/02 01:15:11;;;;;;;17.25;4.20;;;;;;;20.12;58.94;100688.00;5036997;28;20029;-50
2022/09/02 01:17:42;;;;;;;14.32;4.00;;;;;;;20.07;59.45;100686.09;5028396;28;20036;-50
2022/09/02 01:20:12;;;;;;;14.05;4.28;;;;;;;20.00;58.85;100691.00;5040568;28;20040;-49
2022/09/02 01:22:40;;;;;;;14.38;4.25;;;;;;;19.78;59.93;100692.06;5039162;28;20383;-48
2022/09/02 01:25:12;;;;;;;14.75;4.10;;;;;;;19.67;60.57;100681.47;5052004;28;20028;-52
2022/09/02 01:27:38;;;;;;;15.40;4.00;;;;;;;19.61;60.66;100677.13;5038248;28;20034;-49
2022/09/02 01:30:08;;;;;;;9.38;3.75;;;;;;;19.51;61.06;100677.88;5031419;28;20025;-49
2022/09/02 01:32:34;;;;;;;12.38;4.03;;;;;;;19.44;61.32;100671.91;5032473;28;20032;-48
2022/09/02 01:35:01;;;;;;;10.90;3.90;;;;;;;19.38;61.90;100667.56;5040864;28;20476;-51
2022/09/02 01:37:27;;;;;;;13.38;3.97;;;;;;;19.15;62.64;100666.94;5044162;28;20033;-49
2022/09/02 01:39:54;;;;;;;9.40;3.70;;;;;;;19.02;62.44;100670.16;5032858;28;20057;-49
2022/09/02 01:42:20;;;;;;;10.73;3.58;;;;;;;18.86;63.28;100677.41;5037191;28;20487;-48
2022/09/02 01:44:47;;;;;;;12.52;4.43;;;;;;;18.62;64.27;100671.59;5037395;28;20071;-49
2022/09/02 01:47:18;;;;;;;10.13;3.88;;;;;;;18.78;64.17;100677.13;5033382;28;20040;-49
2022/09/02 01:49:45;;;;;;;13.55;4.05;;;;;;;18.77;64.18;100672.75;5040933;28;20048;-49
2022/09/02 01:52:11;;;;;;;14.18;4.60;;;;;;;18.66;64.32;100683.56;5031461;28;20021;-55
2022/09/02 01:54:38;;;;;;;13.13;4.03;;;;;;;18.41;65.56;100683.41;5038418;28;20105;-50
2022/09/02 01:57:04;;;;;;;13.13;4.40;;;;;;;18.26;65.94;100680.59;5045129;28;20033;-49
2022/09/02 01:59:31;;;;;;;18.20;4.43;;;;;;;18.35;65.84;100679.03;5043994;28;20128;-49
2022/09/02 02:01:57;;;;;;;22.92;5.35;;;;;;;18.04;67.39;100675.28;5031270;28;20031;-49
2022/09/02 02:04:24;;;;;;;10.70;4.15;;;;;;;17.91;67.63;100669.22;5049615;28;20060;-51
2022/09/02 02:06:51;;;;;;;11.10;5.10;;;;;;;17.62;68.15;100671.38;5042160;28;20087;-53
2022/09/02 02:09:18;;;;;;;14.35;5.43;;;;;;;17.76;67.99;100669.09;5034928;28;20496;-50
2022/09/02 02:11:45;;;;;;;19.13;5.03;;;;;;;17.76;67.78;100663.69;5035787;28;20056;-49
2022/09/02 02:14:12;;;;;;;12.75;4.78;;;;;;;17.69;67.85;100666.56;5035610;28;20392;-48
2022/09/02 02:16:38;;;;;;;19.08;5.35;;;;;;;17.57;68.42;100665.94;5039488;28;20395;-50
2022/09/02 02:19:05;;;;;;;14.25;4.55;;;;;;;17.11;70.60;100661.94;5050107;28;20026;-51
2022/09/02 02:21:32;;;;;;;13.25;5.70;;;;;;;17.08;70.48;100663.25;5035263;28;20036;-50
2022/09/02 02:24:01;;;;;;;13.40;4.85;;;;;;;17.05;70.50;100662.97;5035679;28;20025;-49
2022/09/02 02:26:29;;;;;;;21.52;6.22;;;;;;;16.89;71.76;100653.84;5036347;28;20030;-49
2022/09/02 02:28:55;;;;;;;12.15;4.97;;;;;;;16.87;71.43;100666.78;5045618;28;20128;-49
2022/09/02 02:31:23;;;;;;;10.93;5.30;;;;;;;16.74;72.52;100664.47;5042423;28;20719;-49
2022/09/02 02:33:50;;;;;;;20.30;5.43;;;;;;;16.69;72.41;100665.19;5047753;28;20049;-51
2022/09/02 02:36:17;;;;;;;16.85;5.63;;;;;;;16.54;72.95;100673.91;5036135;28;20041;-52
2022/09/02 02:38:45;;;;;;;12.60;5.18;;;;;;;16.50;72.93;100671.97;5046471;28;20108;-52
2022/09/02 02:41:13;;;;;;;15.32;5.78;;;;;;;16.27;74.64;100670.28;5036960;28;20043;-51
2022/09/02 02:43:40;;;;;;;19.85;5.82;;;;;;;16.25;74.86;100680.50;5037108;28;20026;-50
2022/09/02 02:46:07;;;;;;;14.48;6.30;;;;;;;16.15;75.54;100680.34;5039629;28;20033;-52
2022/09/02 02:48:35;;;;;;;20.38;6.32;;;;;;;16.03;75.80;100683.94;5054992;28;20395;-49
2022/09/02 02:51:02;;;;;;;19.52;6.30;;;;;;;16.16;75.24;100682.81;5046986;28;20084;-49
2022/09/02 02:53:30;;;;;;;15.82;6.30;;;;;;;15.88;76.20;100685.59;5043044;28;20112;-50
2022/09/02 02:55:57;;;;;;;18.20;6.45;;;;;;;15.79;76.78;100686.00;5046308;28;20479;-49
2022/09/02 02:58:24;;;;;;;14.18;6.88;;;;;;;15.77;77.04;100685.44;5048533;28;20112;-50
2022/09/02 03:00:50;;;;;;;14.60;6.45;;;;;;;15.76;76.95;100689.19;5047637;28;20040;-50
2022/09/02 03:03:21;;;;;;;14.55;6.93;;;;;;;15.72;77.03;100689.94;5035291;28;20424;-50
2022/09/02 03:05:48;;;;;;;11.07;6.32;;;;;;;15.68;77.18;100683.38;5040383;28;20032;-50
2022/09/02 03:08:19;;;;;;;16.77;7.10;;;;;;;15.53;77.91;100681.19;5034539;28;20112;-50
2022/09/02 03:10:48;;;;;;;13.98;6.65;;;;;;;15.35;78.67;100684.91;5034093;28;20036;-51
2022/09/02 03:13:15;;;;;;;16.95;7.55;;;;;;;15.28;79.35;100686.94;5034373;28;20035;-51
2022/09/02 03:15:42;;;;;;;19.38;8.70;;;;;;;15.13;80.30;100690.16;5032882;28;20121;-51
2022/09/02 03:18:08;;;;;;;16.80;8.27;;;;;;;15.21;79.74;100686.25;5034569;28;20033;-51
2022/09/02 03:20:35;;;;;;;15.55;8.27;;;;;;;15.11;80.19;100686.06;5034312;28;20025;-51
2022/09/02 03:23:03;;;;;;;16.40;8.70;;;;;;;15.17;80.28;100690.50;5041153;28;20045;-48
2022/09/02 03:25:30;;;;;;;22.17;9.05;;;;;;;15.23;80.11;100689.53;5044792;28;20044;-49
2022/09/02 03:27:56;;;;;;;19.05;8.57;;;;;;;15.30;79.71;100690.22;5043812;28;20045;-50
2022/09/02 03:30:26;;;;;;;14.95;8.95;;;;;;;15.21;79.99;100699.72;5045949;28;20037;-47
2022/09/02 03:32:56;;;;;;;24.98;9.82;;;;;;;15.13;80.47;100705.50;5033921;28;20018;-51
2022/09/02 03:35:23;;;;;;;17.85;9.10;;;;;;;15.02;81.42;100716.09;5043457;28;20030;-50
2022/09/02 03:37:50;;;;;;;22.20;9.75;;;;;;;15.03;81.34;100712.31;5034297;28;20067;-51
2022/09/02 03:40:20;;;;;;;21.45;10.23;;;;;;;14.86;82.10;100710.63;5047333;28;20032;-49
2022/09/02 03:42:47;;;;;;;18.13;9.30;;;;;;;14.89;82.16;100713.66;5033372;28;20036;-49
2022/09/02 03:45:14;;;;;;;20.05;10.32;;;;;;;14.80;82.66;100715.06;5039532;28;20502;-48
2022/09/02 03:47:50;;;;;;;18.60;9.75;;;;;;;14.85;82.38;100715.19;5053995;28;20386;-47
2022/09/02 03:50:32;;;;;;;;;;;;;;;14.76;82.83;100713.91;5035635;28;20048;-47
2022/09/02 03:52:59;;;;;;;18.55;9.88;;;;;;;14.90;82.26;100725.25;5048146;28;19927;-48
2022/09/02 03:55:26;;;;;;;26.20;10.52;;;;;;;14.90;82.33;100733.34;5045700;28;20108;-47
2022/09/02 03:57:53;;;;;;;18.77;10.00;;;;;;;14.83;83.06;100741.56;5048745;28;20029;-49
2022/09/02 04:00:25;;;;;;;23.05;9.90;;;;;;;14.92;82.57;100736.59;5041254;28;20035;-50
2022/09/02 04:02:53;;;;;;;17.95;9.45;;;;;;;14.87;83.33;100749.97;5043641;28;20095;-49
2022/09/02 04:05:21;;;;;;;18.85;10.00;;;;;;;14.88;83.10;100755.16;5053590;28;20028;-48
2022/09/02 04:07:50;;;;;;;19.05;9.65;;;;;;;14.90;83.31;100761.09;5039722;28;20036;-48
2022/09/02 04:10:16;;;;;;;18.98;9.38;;;;;;;14.90;82.73;100758.41;5037722;28;20541;-51
2022/09/02 04:12:42;;;;;;;18.45;9.20;;;;;;;14.87;83.11;100763.44;5035995;28;20467;-48
2022/09/02 04:15:10;;;;;;;16.35;9.02;;;;;;;14.84;83.18;100755.84;5053433;28;20559;-51
2022/09/02 04:17:39;;;;;;;13.52;8.68;;;;;;;14.79;83.11;100775.41;5053027;28;20029;-48
2022/09/02 04:20:08;;;;;;;20.25;8.93;;;;;;;14.88;83.07;100771.31;5053301;28;20098;-52
2022/09/02 04:22:34;;;;;;;17.95;8.90;;;;;;;14.84;83.25;100794.41;5037879;28;20068;-50
2022/09/02 04:25:01;;;;;;;14.88;8.80;;;;;;;14.77;83.33;100788.31;5035326;28;20033;-51
2022/09/02 04:27:27;;;;;;;20.35;9.40;;;;;;;14.83;83.16;100781.97;5049117;28;20029;-50
2022/09/02 04:29:55;;;;;;;15.25;8.13;;;;;;;14.85;83.04;100787.13;5037339;28;20045;-50
2022/09/02 04:32:21;;;;;;;12.63;7.35;;;;;;;14.63;83.71;100798.50;5051093;28;20052;-52
2022/09/02 04:34:48;;;;;;;12.70;7.30;;;;;;;14.69;83.27;100802.13;5047702;28;20120;-51
2022/09/02 04:37:15;;;;;;;13.95;7.45;;;;;;;14.57;83.42;100806.69;5032708;28;20033;-50
2022/09/02 04:39:41;;;;;;;12.82;7.35;;;;;;;14.65;82.98;100806.31;5032294;28;20025;-50
2022/09/02 04:42:07;;;;;;;15.60;7.35;;;;;;;14.73;82.72;100811.38;5032937;28;20078;-50
2022/09/02 04:44:33;;;;;;;16.48;7.35;;;;;;;14.76;81.87;100803.63;5046499;28;20040;-49
2022/09/02 04:47:01;;;;;;;13.18;6.32;;;;;;;14.61;82.41;100799.78;5047153;28;20049;-50
2022/09/02 04:49:30;;;;;;;11.95;6.43;;;;;;;14.65;82.28;100806.31;5032483;28;20112;-49
2022/09/02 04:51:57;;;;;;;11.68;6.80;;;;;;;14.69;81.53;100813.72;5032524;28;20017;-50
2022/09/02 04:54:23;;;;;;;13.10;7.25;;;;;;;14.76;81.06;100810.91;5032505;28;20430;-49
2022/09/02 04:56:50;;;;;;;9.07;5.90;;;;;;;14.78;80.78;100809.63;5032529;28;20026;-52
2022/09/02 04:59:16;;;;;;;13.82;6.75;;;;;;;14.64;81.07;100810.91;5032772;28;20032;-52
2022/09/02 05:01:43;;;;;;;11.00;6.20;;;;;;;14.55;81.75;100814.16;5032538;28;20037;-50
2022/09/02 05:04:09;;;;;;;10.32;6.18;;;;;;;14.64;81.16;100820.84;5032597;28;20029;-51
2022/09/02 05:06:36;;;;;;;10.52;5.35;;;;;;;14.40;82.16;100822.69;5032630;28;20026;-51
2022/09/02 05:09:03;;;;;;;10.50;6.55;;;;;;;14.42;82.30;100820.56;5047164;28;20064;-49
2022/09/02 05:11:31;;;;;;;11.60;5.32;;;;;;;14.36;82.14;100825.00;5035267;28;20033;-51
2022/09/02 05:14:00;;;;;;;8.30;5.18;;;;;;;14.35;81.99;100817.97;5032388;28;20032;-48
2022/09/02 05:16:38;;;;;;;9.20;5.00;;;;;;;14.36;81.66;100808.84;5032479;28;20029;-51
2022/09/02 05:19:07;;;;;;;9.18;4.85;;;;;;;14.30;82.23;100814.34;5032759;28;20033;-48
2022/09/02 05:21:33;;;;;;;8.27;5.00;;;;;;;14.34;82.06;100821.72;5031834;28;20037;-49
2022/09/02 05:23:59;;;;;;;9.23;5.25;;;;;;;14.30;81.96;100825.94;5040881;28;20029;-50
2022/09/02 05:26:26;;;;;;;7.85;5.15;;;;;;;14.33;81.65;100816.59;5051873;28;20029;-51
2022/09/02 05:28:52;;;;;;;7.93;4.55;;;;;;;14.42;81.22;100813.28;5051940;28;20596;-50
2022/09/02 05:31:25;;;;;;;11.43;5.00;;;;;;;14.42;81.07;100818.69;5051950;28;20379;-49
2022/09/02 05:33:52;;;;;;;7.05;4.47;;;;;;;14.52;80.60;100818.97;5051311;28;20502;-50
2022/09/02 05:36:20;;;;;;;9.00;4.50;;;;;;;14.42;81.14;100824.06;5031964;28;20140;-49
2022/09/02 05:38:47;;;;;;;7.82;4.32;;;;;;;14.46;81.00;100821.75;5031827;28;20634;-49
2022/09/02 05:41:22;;;;;;;7.93;3.83;;;;;;;14.56;80.37;100822.03;5031561;28;20179;-52
2022/09/02 05:43:49;;;;;;;8.33;4.43;;;;;;;14.41;80.92;100811.66;5032137;28;20025;-51
2022/09/02 05:46:19;;;;;;;7.50;4.15;;;;;;;14.41;80.73;100824.31;5031818;28;20509;-49
2022/09/02 05:49:05;;;;;;;6.38;3.47;;;;;;;14.40;80.96;100823.50;5031575;28;20033;-49
2022/09/02 05:51:44;;;;;;;5.40;3.03;;;;;;;14.17;81.85;100820.75;5036928;28;20029;-49
2022/09/02 05:54:17;;;;;;;10.38;3.58;;;;;;;14.11;82.72;100821.69;5051550;28;20048;-52
2022/09/02 05:56:45;;;;;;;8.18;4.00;;;;;;;14.15;82.92;100817.44;5051759;28;20033;-52
2022/09/02 05:59:12;;;;;;;7.03;3.55;;;;;;;14.16;83.37;100819.13;5050132;28;20025;-51
2022/09/02 06:01:40;;;;;;;5.47;3.17;;;;;;;14.24;82.53;100816.91;5051530;28;20108;-52
2022/09/02 06:04:07;;;;;;;5.85;3.08;;;;;;;14.23;82.33;100828.72;5051754;28;20123;-52
2022/09/02 06:06:37;;;;;;;5.13;3.00;;;;;;;14.28;82.33;100830.72;5051921;28;20024;-52
2022/09/02 06:09:06;;;;;;;7.88;3.47;;;;;;;14.17;82.80;100826.97;5050407;28;20021;-52
2022/09/02 06:11:33;;;;;;;6.50;3.88;;;;;;;14.24;82.68;100837.63;5051020;28;20025;-52
2022/09/02 06:14:00;;;;;;;5.65;3.80;;;;;;;14.21;82.83;100830.00;5051771;28;20060;-51
2022/09/02 06:16:27;;;;;;;7.95;3.75;;;;;;;14.14;83.32;100831.97;5051487;28;20379;-53
2022/09/02 06:18:53;;;;;;;7.75;4.55;;;;;;;14.14;83.18;100829.28;5051650;28;20052;-51
2022/09/02 06:21:19;;;;;;;6.75;3.58;;;;;;;14.04;83.99;100835.22;5050663;28;20025;-52
2022/09/02 06:23:46;;;;;;;6.18;3.63;;;;;;;14.25;83.35;100831.19;5041593;28;20029;-52
2022/09/02 06:26:14;;;;;;;6.72;3.75;;;;;;;14.25;82.99;100828.50;5031495;28;20104;-50
2022/09/02 06:28:40;;;;;;;5.80;3.22;;;;;;;14.27;82.71;100821.03;5030692;28;20050;-52
2022/09/02 06:31:15;;;;;;;5.40;3.42;;;;;;;14.42;81.54;100823.25;5030644;28;20029;-49
2022/09/02 06:33:43;;;;;;;5.47;2.97;;;;;;;14.26;81.87;100817.47;5031012;28;20057;-49
2022/09/02 06:36:13;;;;;;;9.40;4.03;;;;;;;14.28;81.91;100825.34;5030932;28;20032;-49
2022/09/02 06:38:42;;;;;;;7.28;3.70;;;;;;;14.24;82.64;100822.28;5031079;28;20052;-49
2022/09/02 06:41:14;;;;;;;6.13;3.70;;;;;;;14.21;82.47;100824.59;5030132;28;20030;-50
2022/09/02 06:43:41;;;;;;;7.65;3.70;;;;;;;14.37;81.57;100828.50;5042961;28;20055;-50
2022/09/02 06:46:13;;;;;;;6.10;3.53;;;;;;;14.34;81.69;100832.50;5050830;28;20021;-52
2022/09/02 06:48:39;;;;;;;7.32;3.72;;;;;;;14.35;81.93;100838.69;5049906;28;20056;-50
2022/09/02 06:51:05;;;;;;;7.40;3.65;;;;;;;14.29;82.16;100834.25;5047900;28;20483;-51
2022/09/02 06:53:32;;;;;;;8.00;3.47;;;;;;;14.34;82.09;100840.56;5051608;28;20057;-52
2022/09/02 06:55:58;;;;;;;7.63;4.20;;;;;;;14.15;83.05;100841.69;5035834;28;20361;-49
2022/09/02 06:58:24;;;;;;;5.65;3.50;;;;;;;14.22;82.74;100839.72;5034178;28;20466;-49
2022/09/02 07:00:50;;;;;;;8.40;4.07;;;;;;;14.20;82.75;100844.50;5034699;28;20045;-48
2022/09/02 07:06:11;;;;;;;7.88;3.90;;;;;;;14.24;81.94;100840.31;5035417;28;20071;-49
2022/09/02 07:08:40;;;;;;;7.78;4.00;;;;;;;14.17;82.77;100844.97;5034366;28;20034;-50
2022/09/02 07:11:14;;;;;;;6.00;3.55;;;;;;;14.06;82.67;100845.75;5033551;28;20018;-51
2022/09/02 07:13:40;;;;;;;6.43;3.70;;;;;;;14.19;82.40;100841.00;5043577;28;20476;-50
2022/09/02 07:16:07;;;;;;;5.38;3.72;;;;;;;14.10;82.90;100838.84;5037683;28;20036;-48
2022/09/02 07:18:34;;;;;;;7.45;4.10;;;;;;;14.04;83.28;100840.59;5054200;28;20048;-51
2022/09/02 07:21:00;;;;;;;7.28;3.90;;;;;;;14.09;82.79;100839.91;5051726;28;20479;-50
2022/09/02 07:23:27;;;;;;;9.60;4.28;;;;;;;14.20;82.37;100844.50;5054043;28;20524;-52
2022/09/02 07:25:54;;;;;;;7.82;4.13;;;;;;;14.17;82.63;100848.50;5039704;28;20044;-50
2022/09/02 07:28:22;;;;;;;8.25;4.68;;;;;;;14.14;83.21;100848.94;5033905;28;20048;-48
2022/09/02 07:30:49;;;;;;;9.15;4.85;;;;;;;14.15;82.84;100852.44;5048299;28;20099;-50
2022/09/02 07:33:15;;;;;;;8.98;5.18;;;;;;;13.98;83.58;100847.72;5053913;28;20037;-48
2022/09/02 07:35:42;;;;;;;9.73;5.20;;;;;;;14.08;83.25;100854.41;5052302;28;20458;-49
2022/09/02 07:38:10;;;;;;;8.88;5.60;;;;;;;14.10;83.28;100850.47;5053758;28;20095;-49
2022/09/02 07:40:39;;;;;;;10.77;5.30;;;;;;;14.10;82.92;100857.69;5041357;28;20372;-51
2022/09/02 07:43:08;;;;;;;10.20;5.82;;;;;;;14.12;83.15;100855.63;5033734;28;20095;-50
2022/09/02 07:45:36;;;;;;;9.32;5.68;;;;;;;14.09;83.03;100850.69;5044122;28;20599;-49
2022/09/02 07:48:06;;;;;;;8.40;5.38;;;;;;;13.94;83.13;100851.94;5053485;28;20040;-50
2022/09/02 07:50:34;;;;;;;8.73;5.57;;;;;;;13.90;83.76;100855.28;5041659;28;20122;-50
2022/09/02 07:53:05;;;;;;;13.65;5.80;;;;;;;13.92;83.48;100859.38;5033037;28;20025;-50
2022/09/02 07:55:34;;;;;;;9.20;5.30;;;;;;;14.04;83.08;100855.91;5039408;28;20025;-50
2022/09/02 07:58:01;;;;;;;9.57;4.75;;;;;;;13.84;83.95;100854.34;5053228;28;20103;-48
2022/09/02 08:00:27;;;;;;;9.25;4.78;;;;;;;13.84;83.59;100854.34;5050907;28;20040;-51
2022/09/02 08:02:54;;;;;;;10.90;5.47;;;;;;;13.93;83.44;100847.56;5052391;28;20029;-47
2022/09/02 08:05:21;;;;;;;9.25;5.38;;;;;;;13.92;83.81;100856.69;5050355;28;20463;-50
2022/09/02 08:07:47;;;;;;;9.13;5.18;;;;;;;13.99;83.72;100857.44;5053172;28;20029;-47
2022/09/02 08:10:15;;;;;;;9.93;5.28;;;;;;;14.03;83.71;100863.19;5045573;28;20083;-48
2022/09/02 08:12:43;;;;;;;9.05;5.20;;;;;;;13.95;83.79;100867.00;5033443;28;20108;-48
2022/09/02 08:15:15;;;;;;;7.72;5.05;;;;;;;13.83;84.29;100860.75;5036232;28;20019;-48
2022/09/02 08:17:43;;;;;;;7.65;4.90;;;;;;;13.92;84.10;100866.63;5032753;28;20033;-48
2022/09/02 08:20:11;;;;;;;8.35;4.50;;;;;;;13.96;83.63;100857.06;5030511;28;20437;-48
2022/09/02 08:22:38;;;;;;;9.00;5.07;;;;;;;13.88;83.95;100866.28;5045135;28;20025;-48
2022/09/02 08:25:05;;;;;;;7.43;4.53;;;;;;;13.98;82.86;100861.16;5031595;28;20021;-51
2022/09/02 08:27:32;;;;;;;8.40;4.65;;;;;;;14.05;82.93;100866.47;5032424;28;20032;-48
2022/09/02 08:30:00;;;;;;;6.93;4.78;;;;;;;14.14;82.37;100862.41;5036459;28;20494;-49
2022/09/02 08:32:31;;;;;;;8.50;4.57;;;;;;;14.15;82.28;100866.72;5040146;28;20376;-48
2022/09/02 08:35:03;;;;;;;8.20;4.90;;;;;;;14.09;82.76;100859.56;5032081;28;26425;-49
2022/09/02 08:37:30;;;;;;;7.57;4.93;;;;;;;14.08;83.12;100862.50;5031669;28;20411;-48
2022/09/02 08:39:57;;;;;;;9.60;5.38;;;;;;;14.06;83.26;100861.91;5031106;28;20467;-48
2022/09/02 08:42:30;;;;;;;8.23;5.00;;;;;;;14.05;82.69;100863.78;5031403;28;20037;-51
2022/09/02 08:45:20;;;;;;;9.63;5.32;;;;;;;14.22;82.19;100872.84;5031073;28;20036;-51
2022/09/02 08:47:51;;;;;;;9.13;4.30;;;;;;;14.06;82.95;100868.13;5031433;28;20034;-50
2022/09/02 08:50:18;;;;;;;8.80;4.65;;;;;;;14.10;82.34;100866.63;5030278;28;20404;-50
2022/09/02 08:53:00;;;;;;;6.57;4.18;;;;;;;14.17;81.96;100863.81;5032025;28;20545;-50
2022/09/02 08:55:32;;;;;;;6.28;4.13;;;;;;;13.97;82.43;100864.91;5046158;28;20494;-48
2022/09/02 08:58:00;;;;;;;9.60;4.35;;;;;;;14.09;82.35;100861.44;5051858;28;20029;-48
2022/09/02 09:00:32;;;;;;;7.55;4.68;;;;;;;14.13;82.18;100859.94;5044861;28;20029;-49
2022/09/02 09:03:22;;;;;;;7.25;4.68;;;;;;;14.27;81.52;100853.31;5032333;28;20030;-49
2022/09/02 09:05:53;;;;;;;7.35;4.57;;;;;;;14.08;82.31;100854.41;5031691;28;20096;-48
2022/09/02 09:08:37;;;;;;;7.30;4.82;;;;;;;14.02;82.35;100850.78;5032411;28;20037;-48
2022/09/02 09:11:35;;;;;;;7.95;4.82;;;;;;;14.10;82.64;100852.31;5030277;28;20426;-47
2022/09/02 09:14:28;;;;;;;7.22;5.60;;;;;;;14.20;82.06;100847.19;5030003;28;20056;-49
2022/09/02 09:16:57;;;;;;;8.05;4.97;;;;;;;14.14;82.15;100848.13;5031288;28;20104;-49
2022/09/02 09:19:47;;;;;;;8.50;5.00;;;;;;;14.14;81.75;100843.56;5032912;28;20033;-48
2022/09/02 09:22:18;;;;;;;10.05;4.72;;;;;;;14.11;81.72;100843.22;5031618;28;20033;-48
2022/09/02 09:24:48;;;;;;;10.23;5.32;;;;;;;14.07;81.91;100836.63;5040836;28;20044;-48
2022/09/02 09:27:22;;;;;;;6.78;4.80;;;;;;;14.04;82.04;100847.84;5031835;28;20060;-48
2022/09/02 09:29:49;;;;;;;9.57;4.75;;;;;;;14.06;81.89;100853.84;5029012;28;20041;-48
2022/09/02 09:32:27;;;;;;;8.60;4.70;;;;;;;14.04;81.54;100847.84;5029682;28;20029;-48
2022/09/02 09:35:01;;;;;;;6.70;4.95;;;;;;;14.12;81.43;100848.34;5034677;28;20025;-49
2022/09/02 09:37:29;;;;;;;7.85;5.30;;;;;;;14.04;81.73;100858.59;5031543;28;20029;-48
2022/09/02 09:39:56;;;;;;;9.05;4.93;;;;;;;13.99;82.24;100861.97;5031948;28;20030;-48
2022/09/02 09:42:36;;;;;;;8.10;5.20;;;;;;;14.07;81.47;100871.63;5031442;28;20104;-48
2022/09/02 09:45:26;;;;;;;9.05;5.13;;;;;;;13.99;82.32;100865.53;5047682;28;20032;-48
2022/09/02 09:48:15;;;;;;;9.25;5.20;;;;;;;13.96;82.57;100867.84;5030911;28;20033;-48
2022/09/02 09:50:47;;;;;;;7.40;5.00;;;;;;;13.97;82.25;100870.28;5025656;28;20042;-50
2022/09/02 09:53:21;;;;;;;8.43;5.43;;;;;;;14.02;82.08;100875.00;5032244;28;20262;-48
2022/09/02 09:55:54;;;;;;;8.00;4.95;;;;;;;13.95;81.69;100883.16;5051487;28;20028;-48
2022/09/02 09:58:33;;;;;;;7.30;4.97;;;;;;;13.85;82.70;100879.38;5040928;28;20040;-48
2022/09/02 10:01:11;;;;;;;7.50;5.10;;;;;;;14.04;81.88;100886.34;5031040;28;20034;-49
2022/09/02 10:03:42;;;;;;;10.68;5.68;;;;;;;14.05;81.85;100893.38;5035126;28;20037;-48
2022/09/02 10:06:21;;;;;;;9.23;5.53;;;;;;;13.96;82.38;100897.44;5050605;28;20048;-48
2022/09/02 10:08:56;;;;;;;8.25;5.75;;;;;;;13.93;82.53;100884.41;5049558;28;20025;-48
2022/09/02 10:11:28;;;;;;;11.30;5.38;;;;;;;13.82;82.82;100890.56;5051411;28;20060;-48
2022/09/02 10:14:20;;;;;;;9.80;5.72;;;;;;;14.11;81.82;100891.66;5044213;28;20026;-49
2022/09/02 10:17:04;;;;;;;10.02;5.70;;;;;;;14.02;81.46;100882.25;5029600;28;20040;-48
2022/09/02 10:19:39;;;;;;;10.20;5.82;;;;;;;14.02;81.45;100887.63;5047313;28;20417;-49
2022/09/02 10:22:30;;;;;;;10.32;6.05;;;;;;;14.21;80.72;100884.69;5034993;28;20376;-48
2022/09/02 10:25:15;;;;;;;10.57;6.10;;;;;;;14.13;80.85;100890.38;5031006;28;20064;-48
2022/09/02 10:28:18;;;;;;;9.95;5.78;;;;;;;14.13;80.86;100886.84;5035959;28;20060;-49
2022/09/02 10:31:02;;;;;;;8.85;6.28;;;;;;;14.03;81.36;100886.56;5054600;28;20419;-47
2022/09/02 10:34:02;;;;;;;10.02;5.72;;;;;;;14.02;81.62;100887.63;5053813;28;20502;-48
2022/09/02 10:36:52;;;;;;;10.93;7.28;;;;;;;14.06;81.58;100894.22;5055040;28;20029;-48
2022/09/02 10:39:32;;;;;;;12.60;7.35;;;;;;;14.08;81.76;100887.53;5052323;28;20040;-48
2022/09/02 10:42:18;;;;;;;11.52;6.97;;;;;;;14.03;81.94;100882.00;5054789;28;20032;-48
2022/09/02 10:45:05;;;;;;;9.63;6.60;;;;;;;13.98;81.55;100876.50;5052005;28;20041;-48
2022/09/02 10:47:39;;;;;;;12.68;7.63;;;;;;;14.12;81.09;100888.72;5053555;28;20039;-48
2022/09/02 10:50:26;;;;;;;9.95;7.25;;;;;;;14.09;81.21;100893.75;5034412;28;20043;-50
2022/09/02 10:53:08;;;;;;;12.73;7.63;;;;;;;14.08;81.28;100897.47;5041440;28;20028;-49
2022/09/02 10:55:49;;;;;;;12.25;7.40;;;;;;;13.99;81.30;100895.13;5054544;28;20063;-48
2022/09/02 10:58:44;;;;;;;12.68;7.55;;;;;;;13.92;81.75;100888.97;5043457;28;20475;-50
2022/09/02 11:01:27;;;;;;;10.02;7.35;;;;;;;14.03;81.27;100887.41;5033766;28;20029;-48
2022/09/02 11:04:42;;;;;;;12.25;7.10;;;;;;;14.08;81.13;100892.09;5043307;28;20174;-48
2022/09/02 11:07:16;;;;;;;11.75;7.63;;;;;;;13.96;81.01;100895.56;4991545;28;20045;-51
2022/09/02 11:10:05;;;;;;;12.35;6.60;;;;;;;14.06;80.55;100886.13;5033361;28;20048;-48
2022/09/02 11:13:14;;;;;;;14.98;8.00;;;;;;;13.84;81.53;100883.94;5032737;28;20029;-52
2022/09/02 11:16:24;;;;;;;13.40;6.95;;;;;;;13.95;81.12;100890.41;5038299;28;20071;-51
2022/09/02 11:19:14;;;;;;;12.68;8.25;;;;;;;14.03;80.78;100886.56;5038409;28;20136;-51
2022/09/02 11:22:01;;;;;;;14.30;8.52;;;;;;;13.94;81.12;100886.91;5034090;28;20029;-51
2022/09/02 11:24:51;;;;;;;15.73;8.35;;;;;;;14.01;80.96;100897.56;5047389;28;20128;-52
2022/09/02 11:27:20;;;;;;;10.32;6.57;;;;;;;13.80;81.35;100889.97;5040632;28;20456;-51
2022/09/02 11:29:55;;;;;;;11.02;7.25;;;;;;;13.94;81.18;100886.91;5041304;28;20050;-52
2022/09/02 11:32:42;;;;;;;11.00;7.75;;;;;;;13.89;81.32;100899.41;5035568;28;20029;-48
2022/09/02 11:35:19;;;;;;;10.50;7.00;;;;;;;13.91;81.19;100895.41;5033559;28;20036;-51
2022/09/02 11:37:51;;;;;;;13.75;7.65;;;;;;;13.95;80.61;100902.00;5034118;28;20036;-48
2022/09/02 11:40:25;;;;;;;11.73;7.50;;;;;;;13.98;81.16;100893.44;5033114;28;20033;-51
2022/09/02 11:43:43;;;;;;;12.65;8.07;;;;;;;13.96;81.24;100898.25;5033552;28;20036;-49